Terminal Aerodrome Forecast
Issued by NWS Cleveland, OH

Home | Current Version | Previous Version | Text Only | Print | Product List | Glossary On
Versions: 1 2 3 4 5 6 7 8 9 10 11 12 13 14 15 16 17 18 19 20 21
000
FTUS41 KCLE 261729
TAFMFD
TAF
KMFD 261729Z 2618/2718 01007KT P6SM SCT045 BKN250
      TEMPO 2618/2620 BKN045
     FM270000 03003KT P6SM SCT250
     FM271000 VRB03KT 4SM BR SCT250
     FM271300 VRB04KT P6SM SCT250=

USA.gov is the U.S. government's official web portal to all federal, state and local government web resources and services.